createdAt,value
2019-06-20T00:00:15.432Z,25.7
2019-06-20T00:03:15.466Z,25.6
2019-06-20T00:06:15.312Z,25.5
2019-06-20T00:09:15.902Z,25.4
2019-06-20T00:12:15.650Z,25.2
2019-06-20T00:15:15.135Z,25.2
2019-06-20T00:18:15.062Z,25.2
2019-06-20T00:21:15.691Z,25.1
2019-06-20T00:24:15.225Z,24.9
2019-06-20T00:27:15.657Z,24.7
2019-06-20T00:30:15.017Z,24.6
2019-06-20T00:33:14.928Z,24.5
2019-06-20T00:36:15.412Z,24.5
2019-06-20T00:39:15.227Z,24.5
2019-06-20T00:42:15.301Z,24.5
2019-06-20T00:45:15.325Z,24.5
2019-06-20T00:48:15.252Z,24.5
2019-06-20T00:51:16.166Z,24.5
2019-06-20T00:54:15.848Z,24.6
2019-06-20T00:57:15.635Z,24.6
2019-06-20T01:00:15.214Z,24.7
2019-06-20T01:03:15.832Z,24.7
2019-06-20T01:06:15.720Z,24.8
2019-06-20T01:09:15.545Z,24.8
2019-06-20T01:12:15.130Z,24.8
2019-06-20T01:15:15.854Z,24.8
2019-06-20T01:18:15.460Z,24.8
2019-06-20T01:21:14.906Z,24.8
2019-06-20T01:24:15.371Z,24.7
2019-06-20T01:27:15.308Z,24.6
2019-06-20T01:30:15.600Z,24.5
2019-06-20T01:33:15.230Z,24.4
2019-06-20T01:36:15.568Z,24.3
2019-06-20T01:39:15.519Z,24.2
2019-06-20T01:42:15.826Z,24.1
2019-06-20T01:45:15.283Z,24.0
2019-06-20T01:48:15.924Z,23.8
2019-06-20T01:51:15.306Z,23.7
2019-06-20T01:54:15.365Z,23.7
2019-06-20T01:57:15.746Z,23.7
2019-06-20T02:00:15.482Z,23.6
2019-06-20T02:03:16.066Z,23.5
2019-06-20T02:06:14.912Z,23.5
2019-06-20T02:09:15.651Z,23.5
2019-06-20T02:12:15.286Z,23.4
2019-06-20T02:15:15.800Z,23.3
2019-06-20T02:18:15.513Z,23.3
2019-06-20T02:21:15.438Z,23.3
2019-06-20T02:24:15.209Z,23.2
2019-06-20T02:27:15.432Z,23.2
2019-06-20T02:30:15.233Z,23.2
2019-06-20T02:33:15.239Z,23.2
2019-06-20T02:36:15.820Z,23.2
2019-06-20T02:39:15.287Z,23.1
2019-06-20T02:42:16.060Z,23.1
2019-06-20T02:45:15.687Z,23.0
2019-06-20T02:48:15.627Z,23.0
2019-06-20T02:51:15.118Z,22.9
2019-06-20T02:54:15.726Z,22.9
2019-06-20T02:57:15.495Z,22.9
2019-06-20T03:00:20.231Z,22.9
2019-06-20T03:03:15.906Z,22.9
2019-06-20T03:06:15.222Z,22.9
2019-06-20T03:09:15.236Z,22.8
2019-06-20T03:12:15.889Z,22.8
2019-06-20T03:15:15.895Z,22.8
2019-06-20T03:18:15.542Z,22.8
2019-06-20T03:21:20.434Z,22.7
2019-06-20T03:24:15.080Z,22.7
2019-06-20T03:27:15.712Z,22.7
2019-06-20T03:30:15.224Z,22.6
2019-06-20T03:33:15.167Z,22.7
2019-06-20T03:36:14.924Z,22.6
2019-06-20T03:39:15.393Z,22.6
2019-06-20T03:42:15.026Z,22.5
2019-06-20T03:45:15.895Z,22.5
2019-06-20T03:48:15.438Z,22.4
2019-06-20T03:51:15.336Z,22.5
2019-06-20T03:54:15.831Z,22.5
2019-06-20T03:57:15.275Z,22.5
2019-06-20T04:00:15.988Z,22.5
2019-06-20T04:03:15.503Z,22.5
2019-06-20T04:06:20.170Z,22.5
2019-06-20T04:09:14.914Z,22.4
2019-06-20T04:12:15.521Z,22.4
2019-06-20T04:15:19.151Z,22.4
2019-06-20T04:18:15.519Z,22.4
2019-06-20T04:21:15.183Z,22.4
2019-06-20T04:24:15.935Z,22.4
2019-06-20T04:27:15.684Z,22.5
2019-06-20T04:30:15.582Z,22.6
2019-06-20T04:33:15.098Z,22.6
2019-06-20T04:36:15.830Z,22.6
2019-06-20T04:39:19.364Z,22.7
2019-06-20T04:42:18.500Z,22.7
2019-06-20T04:45:15.324Z,22.8
2019-06-20T04:48:14.987Z,22.9
2019-06-20T04:51:15.732Z,23.0
2019-06-20T04:54:15.403Z,23.2
2019-06-20T04:57:15.178Z,23.3
2019-06-20T05:00:15.354Z,23.3
2019-06-20T05:03:16.097Z,23.2
2019-06-20T05:06:15.794Z,23.3
2019-06-20T05:09:21.071Z,23.4
2019-06-20T05:12:14.969Z,23.4
2019-06-20T05:15:15.577Z,23.5
2019-06-20T05:18:15.257Z,24.1
2019-06-20T05:21:15.383Z,24.7
2019-06-20T05:24:15.309Z,25.0
2019-06-20T05:27:15.234Z,24.9
2019-06-20T05:30:15.778Z,24.7
2019-06-20T05:33:15.556Z,24.4
2019-06-20T05:36:15.167Z,24.2
2019-06-20T05:39:15.908Z,24.3
2019-06-20T05:42:15.361Z,24.5
2019-06-20T05:45:15.170Z,24.6
2019-06-20T05:48:15.654Z,25.0
2019-06-20T05:51:15.538Z,25.9
2019-06-20T05:54:15.297Z,26.5
2019-06-20T05:57:15.873Z,27.6
2019-06-20T06:00:15.356Z,28.6
2019-06-20T06:03:16.033Z,29.6
2019-06-20T06:06:15.698Z,31.1
2019-06-20T06:09:15.557Z,33.8
2019-06-20T06:12:15.289Z,35.3
2019-06-20T06:15:16.137Z,36.1
2019-06-20T06:18:15.752Z,36.1
2019-06-20T06:21:15.819Z,35.7
2019-06-20T06:24:15.826Z,36.0
2019-06-20T06:27:16.305Z,35.7
2019-06-20T06:30:15.025Z,34.7
2019-06-20T06:33:15.867Z,34.1
2019-06-20T06:36:15.575Z,33.6
2019-06-20T06:39:15.281Z,33.8
2019-06-20T06:42:15.880Z,34.7
2019-06-20T06:45:15.669Z,36.2
2019-06-20T06:48:15.708Z,36.8
2019-06-20T06:51:16.893Z,36.1
2019-06-20T06:54:15.932Z,36.1
2019-06-20T06:57:15.714Z,36.7
2019-06-20T07:00:15.373Z,36.2
2019-06-20T07:03:14.953Z,35.4
2019-06-20T07:06:15.636Z,34.7
2019-06-20T07:09:15.452Z,34.9
2019-06-20T07:12:15.376Z,36.1
2019-06-20T07:15:15.220Z,36.9
2019-06-20T07:18:15.704Z,36.6
2019-06-20T07:21:15.561Z,36.1
2019-06-20T07:24:15.334Z,36.0
2019-06-20T07:27:14.996Z,35.4
2019-06-20T07:30:15.609Z,34.7
2019-06-20T07:33:15.216Z,34.0
2019-06-20T07:36:15.731Z,33.6
2019-06-20T07:39:15.231Z,33.2
2019-06-20T07:42:15.788Z,32.7
2019-06-20T07:45:15.688Z,32.4
2019-06-20T07:48:15.817Z,32.1
2019-06-20T07:51:15.625Z,31.8
2019-06-20T07:54:15.617Z,31.7
2019-06-20T07:57:15.355Z,31.8
2019-06-20T08:00:15.890Z,32.1
2019-06-20T08:03:20.228Z,32.0
2019-06-20T08:06:14.943Z,31.6
2019-06-20T08:09:15.435Z,31.3
2019-06-20T08:12:15.071Z,31.0
2019-06-20T08:15:16.167Z,30.9
2019-06-20T08:18:15.172Z,30.7
2019-06-20T08:21:15.833Z,30.6
2019-06-20T08:24:15.645Z,30.6
2019-06-20T08:27:15.246Z,30.4
2019-06-20T08:30:15.702Z,30.4
2019-06-20T08:33:15.568Z,30.6
2019-06-20T08:36:15.468Z,30.9
2019-06-20T08:39:15.272Z,31.2
2019-06-20T08:42:15.094Z,31.4
2019-06-20T08:45:15.001Z,31.7
2019-06-20T08:48:15.437Z,32.2
2019-06-20T08:51:15.451Z,32.5
2019-06-20T08:54:14.995Z,32.6
2019-06-20T08:57:15.308Z,32.6
2019-06-20T09:00:15.101Z,32.4
2019-06-20T09:03:15.500Z,32.0
2019-06-20T09:06:15.124Z,31.8
2019-06-20T09:09:15.753Z,32.2
2019-06-20T09:12:15.903Z,32.5
2019-06-20T09:15:15.787Z,32.6
2019-06-20T09:18:15.591Z,32.9
2019-06-20T09:21:15.296Z,33.3
2019-06-20T09:24:15.684Z,33.4
2019-06-20T09:27:15.220Z,33.6
2019-06-20T09:30:15.599Z,35.1
2019-06-20T09:33:15.182Z,37.7
2019-06-20T09:36:15.873Z,39.5
2019-06-20T09:39:16.137Z,40.4
2019-06-20T09:42:15.454Z,40.3
2019-06-20T09:45:15.442Z,39.7
2019-06-20T09:48:15.929Z,40.7
2019-06-20T09:51:15.700Z,42.0
2019-06-20T09:54:16.252Z,41.5
2019-06-20T09:57:16.010Z,40.8
2019-06-20T10:00:15.609Z,40.1
2019-06-20T10:03:15.555Z,39.5
2019-06-20T10:06:21.307Z,38.3
2019-06-20T10:09:15.442Z,37.0
2019-06-20T10:15:21.194Z,35.0
2019-06-20T10:18:15.846Z,34.0
2019-06-20T10:21:26.215Z,33.3
2019-06-20T10:24:15.089Z,32.7
2019-06-20T10:27:16.437Z,32.4
2019-06-20T10:30:15.910Z,32.6
2019-06-20T10:33:16.828Z,33.7
2019-06-20T10:36:21.378Z,35.1
2019-06-20T10:39:15.765Z,35.8
2019-06-20T10:42:15.874Z,36.6
2019-06-20T10:45:27.406Z,37.1
2019-06-20T10:48:31.359Z,37.5
2019-06-20T10:51:15.730Z,38.3
2019-06-20T10:54:16.342Z,39.6
2019-06-20T10:57:15.440Z,40.5
2019-06-20T11:00:29.713Z,41.0
2019-06-20T11:03:15.692Z,40.0
2019-06-20T11:06:16.129Z,39.9
2019-06-20T11:09:16.382Z,39.4
2019-06-20T11:12:15.791Z,38.9
2019-06-20T11:15:15.869Z,38.4
2019-06-20T11:19:57.446Z,37.8
2019-06-20T11:24:15.580Z,37.7
2019-06-20T11:27:25.883Z,37.2
2019-06-20T11:30:16.353Z,36.7
2019-06-20T11:33:15.648Z,36.7
2019-06-20T11:36:15.866Z,36.8
2019-06-20T11:39:15.583Z,37.1
2019-06-20T11:42:15.499Z,37.2
2019-06-20T11:45:21.135Z,36.8
2019-06-20T11:48:15.892Z,36.0
2019-06-20T11:51:15.853Z,35.5
2019-06-20T11:54:25.436Z,35.1
2019-06-20T11:57:16.122Z,34.6
2019-06-20T12:00:21.093Z,34.0
2019-06-20T12:03:16.091Z,33.4
2019-06-20T12:06:16.135Z,33.3
2019-06-20T12:09:15.837Z,33.6
2019-06-20T12:12:15.816Z,33.8
2019-06-20T12:15:22.803Z,34.1
2019-06-20T12:18:15.472Z,34.3
2019-06-20T12:21:15.474Z,34.9
2019-06-20T12:24:16.041Z,35.3
2019-06-20T12:27:15.798Z,35.1
2019-06-20T12:30:15.691Z,35.1
2019-06-20T12:33:21.087Z,35.3
2019-06-20T12:36:15.816Z,35.4
2019-06-20T12:39:15.395Z,35.4
2019-06-20T12:42:15.699Z,35.3
2019-06-20T12:45:15.608Z,35.0
2019-06-20T12:48:15.608Z,34.6
2019-06-20T12:51:15.617Z,34.1
2019-06-20T12:54:16.975Z,33.8
2019-06-20T12:57:15.335Z,33.5
2019-06-20T13:00:15.505Z,33.4
2019-06-20T13:03:15.626Z,33.7
2019-06-20T13:06:16.012Z,33.8
2019-06-20T13:09:15.290Z,33.9
2019-06-20T13:12:16.191Z,34.1
2019-06-20T13:15:15.897Z,33.9
2019-06-20T13:18:15.461Z,33.3
2019-06-20T13:21:18.890Z,33.3
2019-06-20T13:24:15.449Z,33.2
2019-06-20T13:27:21.130Z,33.1
2019-06-20T13:30:15.565Z,33.3
2019-06-20T13:33:15.857Z,32.9
2019-06-20T13:36:16.019Z,32.8
2019-06-20T13:39:16.068Z,32.4
2019-06-20T13:42:15.853Z,32.2
2019-06-20T13:45:15.713Z,31.8
2019-06-20T13:48:15.589Z,31.3
2019-06-20T13:51:15.150Z,31.3
2019-06-20T13:54:15.917Z,31.3
2019-06-20T13:57:15.858Z,31.3
2019-06-20T14:00:15.465Z,31.3
2019-06-20T14:03:15.719Z,31.0
2019-06-20T14:06:15.429Z,30.4
2019-06-20T14:09:15.383Z,30.1
2019-06-20T14:12:15.443Z,29.9
2019-06-20T14:15:15.684Z,29.9
2019-06-20T14:18:15.685Z,30.1
2019-06-20T14:21:15.714Z,30.1
2019-06-20T14:24:15.271Z,29.7
2019-06-20T14:27:15.819Z,29.3
2019-06-20T14:30:15.340Z,29.3
2019-06-20T14:33:15.457Z,29.5
2019-06-20T14:36:15.487Z,29.8
2019-06-20T14:39:16.005Z,30.4
2019-06-20T14:42:15.502Z,31.1
2019-06-20T14:45:16.086Z,31.6
2019-06-20T14:48:15.845Z,32.0
2019-06-20T14:51:15.544Z,32.4
2019-06-20T14:54:15.220Z,32.8
2019-06-20T14:57:15.225Z,33.1
2019-06-20T15:00:20.615Z,33.2
2019-06-20T15:03:15.124Z,33.2
2019-06-20T15:06:14.942Z,33.1
2019-06-20T15:09:21.588Z,33.1
2019-06-20T15:12:25.653Z,32.9
2019-06-20T15:15:15.955Z,32.7
2019-06-20T15:21:18.977Z,32.6
2019-06-20T15:24:15.358Z,32.5
2019-06-20T15:27:15.843Z,32.3
2019-06-20T15:30:15.472Z,32.1
2019-06-20T15:33:15.142Z,31.9
2019-06-20T15:36:15.800Z,31.7
2019-06-20T15:39:15.029Z,31.5
2019-06-20T15:42:15.620Z,31.3
2019-06-20T15:45:15.221Z,31.1
2019-06-20T15:48:15.477Z,30.8
2019-06-20T15:51:15.247Z,30.7
2019-06-20T15:54:15.595Z,30.7
2019-06-20T15:57:15.256Z,30.6
2019-06-20T16:00:15.894Z,30.5
2019-06-20T16:03:15.528Z,30.5
2019-06-20T16:06:15.094Z,30.5
2019-06-20T16:09:15.929Z,30.5
2019-06-20T16:12:15.438Z,30.4
2019-06-20T16:15:15.453Z,30.2
2019-06-20T16:18:15.133Z,30.2
2019-06-20T16:21:15.872Z,30.0
2019-06-20T16:24:15.553Z,29.9
2019-06-20T16:27:15.258Z,29.9
2019-06-20T16:30:14.966Z,29.9
2019-06-20T16:33:24.741Z,29.8
2019-06-20T16:36:15.874Z,29.7
2019-06-20T16:39:15.825Z,29.6
2019-06-20T16:42:15.461Z,29.5
2019-06-20T16:45:15.102Z,29.4
2019-06-20T16:48:15.895Z,29.3
2019-06-20T16:51:15.884Z,29.4
2019-06-20T16:54:15.586Z,29.4
2019-06-20T17:00:15.075Z,29.3
2019-06-20T17:03:15.071Z,29.2
2019-06-20T17:06:15.371Z,29.2
2019-06-20T17:09:15.211Z,29.3
2019-06-20T17:12:20.977Z,29.3
2019-06-20T17:15:15.018Z,29.1
2019-06-20T17:18:16.159Z,28.9
2019-06-20T17:21:15.463Z,28.6
2019-06-20T17:24:15.014Z,28.4
2019-06-20T17:27:15.664Z,28.3
2019-06-20T17:30:15.231Z,28.2
2019-06-20T17:33:15.143Z,28.1
2019-06-20T17:36:18.605Z,28.1
2019-06-20T17:39:15.236Z,28.0
2019-06-20T17:42:15.078Z,27.9
2019-06-20T17:45:16.042Z,27.8
2019-06-20T17:48:15.384Z,27.8
2019-06-20T17:51:15.050Z,27.7
2019-06-20T17:54:15.688Z,27.7
2019-06-20T17:57:15.963Z,27.6
2019-06-20T18:00:15.600Z,27.6
2019-06-20T18:03:15.102Z,27.5
2019-06-20T18:06:15.750Z,27.3
2019-06-20T18:09:15.374Z,27.2
2019-06-20T18:12:15.459Z,27.1
2019-06-20T18:15:17.076Z,26.9
2019-06-20T18:18:15.939Z,26.9
2019-06-20T18:21:15.783Z,26.9
2019-06-20T18:27:21.601Z,26.9
2019-06-20T18:30:23.550Z,26.9
2019-06-20T18:33:17.020Z,26.9
2019-06-20T18:36:16.282Z,26.9
2019-06-20T18:39:15.657Z,26.8
2019-06-20T18:42:15.331Z,26.8
2019-06-20T18:45:23.590Z,26.8
2019-06-20T18:48:16.161Z,26.7
2019-06-20T18:51:16.897Z,26.5
2019-06-20T18:54:15.522Z,26.3
2019-06-20T18:57:25.349Z,26.1
2019-06-20T19:00:15.965Z,26.0
2019-06-20T19:03:15.041Z,25.8
2019-06-20T19:06:15.415Z,25.8
2019-06-20T19:09:15.169Z,25.7
2019-06-20T19:12:15.375Z,25.6
2019-06-20T19:15:20.510Z,25.4
2019-06-20T19:18:23.410Z,25.3
2019-06-20T19:21:20.214Z,25.2
2019-06-20T19:24:15.232Z,25.1
2019-06-20T19:27:15.184Z,25.0
2019-06-20T19:30:15.374Z,24.9
2019-06-20T19:33:15.085Z,24.8
2019-06-20T19:36:15.391Z,24.8
2019-06-20T19:39:15.363Z,24.7
2019-06-20T19:42:15.641Z,24.6
2019-06-20T19:45:15.569Z,24.6
2019-06-20T19:48:15.222Z,24.5
2019-06-20T19:51:15.615Z,24.4
2019-06-20T19:54:15.393Z,24.4
2019-06-20T19:57:15.491Z,24.3
2019-06-20T20:00:15.390Z,24.2
2019-06-20T20:03:15.564Z,24.1
2019-06-20T20:06:15.761Z,24.1
2019-06-20T20:09:15.035Z,24.0
2019-06-20T20:12:14.973Z,24.0
2019-06-20T20:15:15.173Z,24.0
2019-06-20T20:18:15.179Z,23.9
2019-06-20T20:21:18.194Z,23.9
2019-06-20T20:24:15.806Z,23.9
2019-06-20T20:27:15.136Z,23.8
2019-06-20T20:30:25.112Z,23.8
2019-06-20T20:36:24.768Z,23.7
2019-06-20T20:39:21.406Z,23.7
2019-06-20T20:42:17.733Z,23.7
2019-06-20T20:45:15.637Z,23.7
2019-06-20T20:48:15.255Z,23.8
2019-06-20T20:51:15.046Z,23.8
2019-06-20T20:54:15.626Z,23.8
2019-06-20T20:57:15.039Z,23.8
2019-06-20T21:00:15.709Z,23.8
2019-06-20T21:03:15.544Z,23.7
2019-06-20T21:06:15.320Z,23.6
2019-06-20T21:09:15.092Z,23.4
2019-06-20T21:12:15.770Z,23.3
2019-06-20T21:15:15.653Z,23.2
2019-06-20T21:18:15.644Z,23.2
2019-06-20T21:21:15.081Z,23.1
2019-06-20T21:24:15.669Z,23.1
2019-06-20T21:27:15.899Z,23.1
2019-06-20T21:30:15.831Z,23.1
2019-06-20T21:33:15.889Z,23.1
2019-06-20T21:36:15.929Z,23.2
2019-06-20T21:39:15.753Z,23.2
2019-06-20T21:42:15.395Z,23.2
2019-06-20T21:45:15.099Z,23.2
2019-06-20T21:48:15.139Z,23.2
2019-06-20T21:51:15.558Z,23.1
2019-06-20T21:54:20.298Z,23.1
2019-06-20T21:57:14.940Z,23.0
2019-06-20T22:00:15.542Z,22.9
2019-06-20T22:03:15.584Z,22.9
2019-06-20T22:06:23.878Z,22.8
2019-06-20T22:09:15.031Z,22.8
2019-06-20T22:12:15.010Z,22.8
2019-06-20T22:15:15.622Z,22.7
2019-06-20T22:18:16.627Z,22.7
2019-06-20T22:21:15.443Z,22.6
2019-06-20T22:24:15.906Z,22.6
2019-06-20T22:27:16.296Z,22.5
2019-06-20T22:30:15.958Z,22.4
2019-06-20T22:33:15.770Z,22.4
2019-06-20T22:36:20.974Z,22.3
2019-06-20T22:39:15.398Z,22.2
2019-06-20T22:42:14.967Z,22.2
2019-06-20T22:45:15.708Z,22.1
2019-06-20T22:48:15.474Z,22.1
2019-06-20T22:51:15.124Z,22.1
2019-06-20T22:54:15.759Z,22.1
2019-06-20T22:57:15.497Z,22.1
2019-06-20T23:00:14.960Z,22.0
2019-06-20T23:03:15.420Z,22.0
2019-06-20T23:06:15.024Z,21.9
2019-06-20T23:09:15.012Z,21.9
2019-06-20T23:12:15.875Z,21.8
2019-06-20T23:15:15.486Z,21.7
2019-06-20T23:18:15.650Z,21.7
2019-06-20T23:21:15.322Z,21.6
2019-06-20T23:24:15.121Z,21.6
2019-06-20T23:27:15.862Z,21.5
2019-06-20T23:30:15.355Z,21.5
2019-06-20T23:33:15.223Z,21.5
2019-06-20T23:36:15.831Z,21.4
2019-06-20T23:39:15.540Z,21.4
2019-06-20T23:42:15.079Z,21.4
2019-06-20T23:45:15.760Z,21.3
2019-06-20T23:48:15.433Z,21.3
2019-06-20T23:51:24.975Z,21.3
2019-06-20T23:54:14.989Z,21.3
2019-06-20T23:57:15.740Z,21.2
